sensor_id;sensor_type;location;lat;lon;timestamp;P1;durP1;ratioP1;P2;durP2;ratioP2
3175;SDS011;1599;51.564;6.990;2022-07-10T00:00:41;3.87;;;1.87;;
3175;SDS011;1599;51.564;6.990;2022-07-10T00:03:06;8.53;;;2.20;;
3175;SDS011;1599;51.564;6.990;2022-07-10T00:05:32;5.03;;;2.20;;
3175;SDS011;1599;51.564;6.990;2022-07-10T00:08:01;4.73;;;1.87;;
3175;SDS011;1599;51.564;6.990;2022-07-10T00:10:27;9.20;;;2.40;;
3175;SDS011;1599;51.564;6.990;2022-07-10T00:12:54;4.97;;;2.07;;
3175;SDS011;1599;51.564;6.990;2022-07-10T00:15:20;6.47;;;2.20;;
3175;SDS011;1599;51.564;6.990;2022-07-10T00:17:47;7.20;;;2.00;;
3175;SDS011;1599;51.564;6.990;2022-07-10T00:20:13;6.57;;;2.50;;
3175;SDS011;1599;51.564;6.990;2022-07-10T00:22:39;8.80;;;2.10;;
3175;SDS011;1599;51.564;6.990;2022-07-10T00:25:06;3.33;;;1.80;;
3175;SDS011;1599;51.564;6.990;2022-07-10T00:27:36;6.47;;;2.60;;
3175;SDS011;1599;51.564;6.990;2022-07-10T00:30:03;7.13;;;2.33;;
3175;SDS011;1599;51.564;6.990;2022-07-10T00:32:29;4.33;;;1.70;;
3175;SDS011;1599;51.564;6.990;2022-07-10T00:34:55;4.30;;;1.87;;
3175;SDS011;1599;51.564;6.990;2022-07-10T00:37:20;6.40;;;1.90;;
3175;SDS011;1599;51.564;6.990;2022-07-10T00:39:46;4.93;;;2.23;;
3175;SDS011;1599;51.564;6.990;2022-07-10T00:42:14;5.07;;;2.23;;
3175;SDS011;1599;51.564;6.990;2022-07-10T00:44:40;3.43;;;1.70;;
3175;SDS011;1599;51.564;6.990;2022-07-10T00:47:07;4.83;;;2.40;;
3175;SDS011;1599;51.564;6.990;2022-07-10T00:49:35;2.93;;;1.90;;
3175;SDS011;1599;51.564;6.990;2022-07-10T00:52:06;5.53;;;2.83;;
3175;SDS011;1599;51.564;6.990;2022-07-10T00:54:35;3.77;;;2.13;;
3175;SDS011;1599;51.564;6.990;2022-07-10T00:57:03;4.27;;;1.90;;
3175;SDS011;1599;51.564;6.990;2022-07-10T00:59:33;6.23;;;2.50;;
3175;SDS011;1599;51.564;6.990;2022-07-10T01:02:00;6.50;;;1.93;;
3175;SDS011;1599;51.564;6.990;2022-07-10T01:04:30;5.80;;;2.00;;
3175;SDS011;1599;51.564;6.990;2022-07-10T01:06:57;5.53;;;2.43;;
3175;SDS011;1599;51.564;6.990;2022-07-10T01:09:23;5.20;;;1.70;;
3175;SDS011;1599;51.564;6.990;2022-07-10T01:11:49;8.03;;;2.83;;
3175;SDS011;1599;51.564;6.990;2022-07-10T01:14:16;5.23;;;2.20;;
3175;SDS011;1599;51.564;6.990;2022-07-10T01:16:41;5.77;;;2.50;;
3175;SDS011;1599;51.564;6.990;2022-07-10T01:19:07;5.50;;;2.27;;
3175;SDS011;1599;51.564;6.990;2022-07-10T01:21:34;4.40;;;1.90;;
3175;SDS011;1599;51.564;6.990;2022-07-10T01:24:06;6.00;;;3.03;;
3175;SDS011;1599;51.564;6.990;2022-07-10T01:26:34;5.07;;;1.97;;
3175;SDS011;1599;51.564;6.990;2022-07-10T01:29:03;4.10;;;2.00;;
3175;SDS011;1599;51.564;6.990;2022-07-10T01:31:31;6.43;;;2.20;;
3175;SDS011;1599;51.564;6.990;2022-07-10T01:33:59;6.20;;;1.97;;
3175;SDS011;1599;51.564;6.990;2022-07-10T01:36:27;6.43;;;2.47;;
3175;SDS011;1599;51.564;6.990;2022-07-10T01:38:57;4.90;;;1.93;;
3175;SDS011;1599;51.564;6.990;2022-07-10T01:41:24;3.77;;;2.30;;
3175;SDS011;1599;51.564;6.990;2022-07-10T01:43:50;3.30;;;1.83;;
3175;SDS011;1599;51.564;6.990;2022-07-10T01:46:17;4.13;;;1.83;;
3175;SDS011;1599;51.564;6.990;2022-07-10T01:48:43;3.80;;;1.90;;
3175;SDS011;1599;51.564;6.990;2022-07-10T01:51:10;4.73;;;1.70;;
3175;SDS011;1599;51.564;6.990;2022-07-10T01:53:37;7.20;;;1.80;;
3175;SDS011;1599;51.564;6.990;2022-07-10T01:56:04;3.73;;;2.33;;
3175;SDS011;1599;51.564;6.990;2022-07-10T01:58:33;7.67;;;1.80;;
3175;SDS011;1599;51.564;6.990;2022-07-10T02:00:59;3.40;;;1.40;;
3175;SDS011;1599;51.564;6.990;2022-07-10T02:03:26;5.87;;;2.07;;
3175;SDS011;1599;51.564;6.990;2022-07-10T02:06:11;7.33;;;2.37;;
3175;SDS011;1599;51.564;6.990;2022-07-10T02:08:36;7.47;;;2.20;;
3175;SDS011;1599;51.564;6.990;2022-07-10T02:11:02;4.70;;;1.77;;
3175;SDS011;1599;51.564;6.990;2022-07-10T02:13:28;4.47;;;2.13;;
3175;SDS011;1599;51.564;6.990;2022-07-10T02:15:54;4.83;;;2.10;;
3175;SDS011;1599;51.564;6.990;2022-07-10T02:18:21;5.40;;;2.13;;
3175;SDS011;1599;51.564;6.990;2022-07-10T02:20:47;4.60;;;1.70;;
3175;SDS011;1599;51.564;6.990;2022-07-10T02:23:14;3.93;;;1.87;;
3175;SDS011;1599;51.564;6.990;2022-07-10T02:25:40;4.30;;;2.07;;
3175;SDS011;1599;51.564;6.990;2022-07-10T02:28:05;3.70;;;1.90;;
3175;SDS011;1599;51.564;6.990;2022-07-10T02:30:33;6.57;;;2.30;;
3175;SDS011;1599;51.564;6.990;2022-07-10T02:32:59;5.63;;;2.23;;
3175;SDS011;1599;51.564;6.990;2022-07-10T02:35:25;7.73;;;3.10;;
3175;SDS011;1599;51.564;6.990;2022-07-10T02:37:54;6.70;;;2.20;;
3175;SDS011;1599;51.564;6.990;2022-07-10T02:40:20;10.80;;;2.60;;
3175;SDS011;1599;51.564;6.990;2022-07-10T02:42:46;6.97;;;2.03;;
3175;SDS011;1599;51.564;6.990;2022-07-10T02:45:12;4.73;;;2.17;;
3175;SDS011;1599;51.564;6.990;2022-07-10T02:47:37;7.47;;;2.40;;
3175;SDS011;1599;51.564;6.990;2022-07-10T02:50:03;5.43;;;1.93;;
3175;SDS011;1599;51.564;6.990;2022-07-10T02:52:29;5.13;;;2.10;;
3175;SDS011;1599;51.564;6.990;2022-07-10T02:54:56;3.53;;;2.23;;
3175;SDS011;1599;51.564;6.990;2022-07-10T02:57:22;9.27;;;2.30;;
3175;SDS011;1599;51.564;6.990;2022-07-10T02:59:48;8.17;;;2.00;;
3175;SDS011;1599;51.564;6.990;2022-07-10T03:02:14;6.50;;;2.37;;
3175;SDS011;1599;51.564;6.990;2022-07-10T03:04:40;5.37;;;1.90;;
3175;SDS011;1599;51.564;6.990;2022-07-10T03:07:06;3.37;;;2.10;;
3175;SDS011;1599;51.564;6.990;2022-07-10T03:09:32;7.07;;;2.20;;
3175;SDS011;1599;51.564;6.990;2022-07-10T03:11:58;5.50;;;2.40;;
3175;SDS011;1599;51.564;6.990;2022-07-10T03:14:23;5.77;;;2.33;;
3175;SDS011;1599;51.564;6.990;2022-07-10T03:16:49;6.77;;;2.23;;
3175;SDS011;1599;51.564;6.990;2022-07-10T03:19:15;8.17;;;2.10;;
3175;SDS011;1599;51.564;6.990;2022-07-10T03:21:41;5.43;;;3.00;;
3175;SDS011;1599;51.564;6.990;2022-07-10T03:24:07;5.70;;;2.50;;
3175;SDS011;1599;51.564;6.990;2022-07-10T03:26:33;4.30;;;2.30;;
3175;SDS011;1599;51.564;6.990;2022-07-10T03:28:59;2.83;;;2.10;;
3175;SDS011;1599;51.564;6.990;2022-07-10T03:31:25;4.03;;;1.77;;
3175;SDS011;1599;51.564;6.990;2022-07-10T03:33:50;5.23;;;2.03;;
3175;SDS011;1599;51.564;6.990;2022-07-10T03:36:17;4.67;;;2.43;;
3175;SDS011;1599;51.564;6.990;2022-07-10T03:38:44;2.70;;;2.20;;
3175;SDS011;1599;51.564;6.990;2022-07-10T03:41:11;7.83;;;2.30;;
3175;SDS011;1599;51.564;6.990;2022-07-10T03:43:38;5.60;;;2.73;;
3175;SDS011;1599;51.564;6.990;2022-07-10T03:46:04;6.27;;;2.80;;
3175;SDS011;1599;51.564;6.990;2022-07-10T03:48:30;5.03;;;2.43;;
3175;SDS011;1599;51.564;6.990;2022-07-10T03:50:55;3.80;;;1.90;;
3175;SDS011;1599;51.564;6.990;2022-07-10T03:53:21;6.63;;;3.13;;
3175;SDS011;1599;51.564;6.990;2022-07-10T03:55:47;6.40;;;2.20;;
3175;SDS011;1599;51.564;6.990;2022-07-10T03:58:13;7.37;;;2.00;;
3175;SDS011;1599;51.564;6.990;2022-07-10T04:00:38;6.50;;;2.60;;
3175;SDS011;1599;51.564;6.990;2022-07-10T04:03:07;5.83;;;2.13;;
3175;SDS011;1599;51.564;6.990;2022-07-10T04:05:33;7.43;;;2.50;;
3175;SDS011;1599;51.564;6.990;2022-07-10T04:08:00;9.30;;;1.97;;
3175;SDS011;1599;51.564;6.990;2022-07-10T04:10:28;7.00;;;2.67;;
3175;SDS011;1599;51.564;6.990;2022-07-10T04:12:56;6.40;;;2.57;;
3175;SDS011;1599;51.564;6.990;2022-07-10T04:15:22;11.10;;;2.57;;
3175;SDS011;1599;51.564;6.990;2022-07-10T04:17:48;5.43;;;1.70;;
3175;SDS011;1599;51.564;6.990;2022-07-10T04:20:15;4.90;;;2.10;;
3175;SDS011;1599;51.564;6.990;2022-07-10T04:22:41;4.50;;;2.00;;
3175;SDS011;1599;51.564;6.990;2022-07-10T04:25:08;8.40;;;2.70;;
3175;SDS011;1599;51.564;6.990;2022-07-10T04:27:36;4.80;;;2.07;;
3175;SDS011;1599;51.564;6.990;2022-07-10T04:30:02;10.33;;;2.27;;
3175;SDS011;1599;51.564;6.990;2022-07-10T04:32:29;6.77;;;2.27;;
3175;SDS011;1599;51.564;6.990;2022-07-10T04:34:56;6.13;;;1.87;;
3175;SDS011;1599;51.564;6.990;2022-07-10T04:37:22;4.70;;;2.23;;
3175;SDS011;1599;51.564;6.990;2022-07-10T04:39:48;4.20;;;2.37;;
3175;SDS011;1599;51.564;6.990;2022-07-10T04:42:14;4.20;;;2.40;;
3175;SDS011;1599;51.564;6.990;2022-07-10T04:44:40;4.90;;;1.97;;
3175;SDS011;1599;51.564;6.990;2022-07-10T04:47:06;4.83;;;2.10;;
3175;SDS011;1599;51.564;6.990;2022-07-10T04:49:32;5.47;;;2.20;;
3175;SDS011;1599;51.564;6.990;2022-07-10T04:51:59;4.17;;;1.73;;
3175;SDS011;1599;51.564;6.990;2022-07-10T04:54:24;5.53;;;2.07;;
3175;SDS011;1599;51.564;6.990;2022-07-10T04:56:50;6.10;;;2.30;;
3175;SDS011;1599;51.564;6.990;2022-07-10T04:59:17;3.90;;;2.13;;
3175;SDS011;1599;51.564;6.990;2022-07-10T05:01:46;9.93;;;2.33;;
3175;SDS011;1599;51.564;6.990;2022-07-10T05:04:11;5.13;;;1.80;;
3175;SDS011;1599;51.564;6.990;2022-07-10T05:06:38;3.57;;;1.83;;
3175;SDS011;1599;51.564;6.990;2022-07-10T05:09:03;5.70;;;2.03;;
3175;SDS011;1599;51.564;6.990;2022-07-10T05:11:29;4.13;;;2.10;;
3175;SDS011;1599;51.564;6.990;2022-07-10T05:13:56;9.87;;;2.20;;
3175;SDS011;1599;51.564;6.990;2022-07-10T05:16:22;4.97;;;2.30;;
3175;SDS011;1599;51.564;6.990;2022-07-10T05:18:48;5.30;;;2.23;;
3175;SDS011;1599;51.564;6.990;2022-07-10T05:21:14;4.50;;;2.20;;
3175;SDS011;1599;51.564;6.990;2022-07-10T05:23:41;4.30;;;2.50;;
3175;SDS011;1599;51.564;6.990;2022-07-10T05:26:07;4.60;;;1.80;;
3175;SDS011;1599;51.564;6.990;2022-07-10T05:28:32;3.20;;;1.70;;
3175;SDS011;1599;51.564;6.990;2022-07-10T05:30:59;8.23;;;2.13;;
3175;SDS011;1599;51.564;6.990;2022-07-10T05:33:25;7.20;;;2.67;;
3175;SDS011;1599;51.564;6.990;2022-07-10T05:35:54;6.10;;;2.23;;
3175;SDS011;1599;51.564;6.990;2022-07-10T05:38:20;4.30;;;2.20;;
3175;SDS011;1599;51.564;6.990;2022-07-10T05:40:46;6.37;;;2.40;;
3175;SDS011;1599;51.564;6.990;2022-07-10T05:43:12;8.53;;;2.40;;
3175;SDS011;1599;51.564;6.990;2022-07-10T05:45:37;7.47;;;3.43;;
3175;SDS011;1599;51.564;6.990;2022-07-10T05:48:03;6.13;;;2.70;;
3175;SDS011;1599;51.564;6.990;2022-07-10T05:50:29;8.40;;;2.60;;
3175;SDS011;1599;51.564;6.990;2022-07-10T05:52:55;9.53;;;1.93;;
3175;SDS011;1599;51.564;6.990;2022-07-10T05:55:21;6.90;;;1.87;;
3175;SDS011;1599;51.564;6.990;2022-07-10T05:57:47;6.20;;;1.97;;
3175;SDS011;1599;51.564;6.990;2022-07-10T06:00:13;3.63;;;1.80;;
3175;SDS011;1599;51.564;6.990;2022-07-10T06:02:39;4.57;;;1.80;;
3175;SDS011;1599;51.564;6.990;2022-07-10T06:05:05;10.73;;;2.23;;
3175;SDS011;1599;51.564;6.990;2022-07-10T06:07:31;5.50;;;2.40;;
3175;SDS011;1599;51.564;6.990;2022-07-10T06:09:58;8.70;;;2.23;;
3175;SDS011;1599;51.564;6.990;2022-07-10T06:12:23;7.83;;;2.23;;
3175;SDS011;1599;51.564;6.990;2022-07-10T06:14:49;8.00;;;3.03;;
3175;SDS011;1599;51.564;6.990;2022-07-10T06:17:15;7.37;;;2.70;;
3175;SDS011;1599;51.564;6.990;2022-07-10T06:19:41;10.20;;;3.37;;
3175;SDS011;1599;51.564;6.990;2022-07-10T06:22:07;6.07;;;2.10;;
3175;SDS011;1599;51.564;6.990;2022-07-10T06:24:51;6.07;;;2.30;;
3175;SDS011;1599;51.564;6.990;2022-07-10T06:27:17;4.93;;;2.20;;
3175;SDS011;1599;51.564;6.990;2022-07-10T06:29:43;7.80;;;1.90;;
3175;SDS011;1599;51.564;6.990;2022-07-10T06:32:09;6.23;;;2.23;;
3175;SDS011;1599;51.564;6.990;2022-07-10T06:34:34;2.53;;;1.70;;
3175;SDS011;1599;51.564;6.990;2022-07-10T06:37:00;5.43;;;2.10;;
3175;SDS011;1599;51.564;6.990;2022-07-10T06:39:26;18.50;;;2.50;;
3175;SDS011;1599;51.564;6.990;2022-07-10T06:41:56;4.03;;;2.40;;
3175;SDS011;1599;51.564;6.990;2022-07-10T06:44:22;7.97;;;2.30;;
3175;SDS011;1599;51.564;6.990;2022-07-10T06:46:48;4.63;;;2.17;;
3175;SDS011;1599;51.564;6.990;2022-07-10T06:49:34;4.63;;;2.33;;
3175;SDS011;1599;51.564;6.990;2022-07-10T06:52:00;6.50;;;1.83;;
3175;SDS011;1599;51.564;6.990;2022-07-10T06:54:25;8.00;;;2.00;;
3175;SDS011;1599;51.564;6.990;2022-07-10T06:56:52;7.33;;;2.03;;
3175;SDS011;1599;51.564;6.990;2022-07-10T06:59:18;8.27;;;2.17;;
3175;SDS011;1599;51.564;6.990;2022-07-10T07:01:44;6.47;;;2.10;;
3175;SDS011;1599;51.564;6.990;2022-07-10T07:04:10;6.37;;;2.13;;
3175;SDS011;1599;51.564;6.990;2022-07-10T07:06:35;3.83;;;2.20;;
3175;SDS011;1599;51.564;6.990;2022-07-10T07:09:01;9.70;;;1.97;;
3175;SDS011;1599;51.564;6.990;2022-07-10T07:11:27;7.00;;;2.40;;
3175;SDS011;1599;51.564;6.990;2022-07-10T07:13:53;6.17;;;2.00;;
3175;SDS011;1599;51.564;6.990;2022-07-10T07:16:19;6.40;;;2.10;;
3175;SDS011;1599;51.564;6.990;2022-07-10T07:18:53;5.80;;;2.37;;
3175;SDS011;1599;51.564;6.990;2022-07-10T07:21:20;4.83;;;2.20;;
3175;SDS011;1599;51.564;6.990;2022-07-10T07:24:05;8.70;;;2.97;;
3175;SDS011;1599;51.564;6.990;2022-07-10T07:26:31;6.57;;;2.50;;
3175;SDS011;1599;51.564;6.990;2022-07-10T07:28:56;4.43;;;2.10;;
3175;SDS011;1599;51.564;6.990;2022-07-10T07:31:22;5.83;;;2.40;;
3175;SDS011;1599;51.564;6.990;2022-07-10T07:33:48;7.53;;;2.00;;
3175;SDS011;1599;51.564;6.990;2022-07-10T07:36:13;10.57;;;2.60;;
3175;SDS011;1599;51.564;6.990;2022-07-10T07:38:39;8.83;;;2.17;;
3175;SDS011;1599;51.564;6.990;2022-07-10T07:41:05;11.40;;;3.20;;
3175;SDS011;1599;51.564;6.990;2022-07-10T07:43:31;4.40;;;1.93;;
3175;SDS011;1599;51.564;6.990;2022-07-10T07:45:56;7.73;;;2.67;;
3175;SDS011;1599;51.564;6.990;2022-07-10T07:48:22;7.50;;;2.73;;
3175;SDS011;1599;51.564;6.990;2022-07-10T07:50:48;6.40;;;2.70;;
3175;SDS011;1599;51.564;6.990;2022-07-10T07:53:14;6.23;;;2.03;;
3175;SDS011;1599;51.564;6.990;2022-07-10T07:55:40;4.20;;;2.00;;
3175;SDS011;1599;51.564;6.990;2022-07-10T07:58:05;9.60;;;2.90;;
3175;SDS011;1599;51.564;6.990;2022-07-10T08:00:31;7.20;;;2.50;;
3175;SDS011;1599;51.564;6.990;2022-07-10T08:02:58;8.23;;;2.23;;
3175;SDS011;1599;51.564;6.990;2022-07-10T08:05:26;7.20;;;3.10;;
3175;SDS011;1599;51.564;6.990;2022-07-10T08:07:57;11.50;;;2.97;;
3175;SDS011;1599;51.564;6.990;2022-07-10T08:10:26;5.90;;;2.93;;
3175;SDS011;1599;51.564;6.990;2022-07-10T08:12:53;11.53;;;3.03;;
3175;SDS011;1599;51.564;6.990;2022-07-10T08:15:19;5.97;;;2.60;;
3175;SDS011;1599;51.564;6.990;2022-07-10T08:17:48;5.93;;;2.87;;
3175;SDS011;1599;51.564;6.990;2022-07-10T08:20:18;5.80;;;2.47;;
3175;SDS011;1599;51.564;6.990;2022-07-10T08:22:44;7.20;;;2.53;;
3175;SDS011;1599;51.564;6.990;2022-07-10T08:25:12;11.37;;;2.90;;
3175;SDS011;1599;51.564;6.990;2022-07-10T08:27:38;9.27;;;2.60;;
3175;SDS011;1599;51.564;6.990;2022-07-10T08:30:05;6.00;;;2.73;;
3175;SDS011;1599;51.564;6.990;2022-07-10T08:32:34;4.97;;;2.80;;
3175;SDS011;1599;51.564;6.990;2022-07-10T08:35:01;9.73;;;2.30;;
3175;SDS011;1599;51.564;6.990;2022-07-10T08:37:28;3.90;;;1.93;;
3175;SDS011;1599;51.564;6.990;2022-07-10T08:39:54;4.77;;;2.63;;
3175;SDS011;1599;51.564;6.990;2022-07-10T08:42:21;3.10;;;2.23;;
3175;SDS011;1599;51.564;6.990;2022-07-10T08:44:47;5.87;;;2.80;;
3175;SDS011;1599;51.564;6.990;2022-07-10T08:47:14;3.70;;;2.60;;
3175;SDS011;1599;51.564;6.990;2022-07-10T08:49:46;6.10;;;3.83;;
3175;SDS011;1599;51.564;6.990;2022-07-10T08:52:21;6.73;;;2.40;;
3175;SDS011;1599;51.564;6.990;2022-07-10T08:54:52;6.60;;;3.13;;
3175;SDS011;1599;51.564;6.990;2022-07-10T08:57:22;4.60;;;2.93;;
3175;SDS011;1599;51.564;6.990;2022-07-10T08:59:49;9.27;;;3.23;;
3175;SDS011;1599;51.564;6.990;2022-07-10T09:02:15;6.77;;;3.33;;
3175;SDS011;1599;51.564;6.990;2022-07-10T09:04:41;7.80;;;3.77;;
3175;SDS011;1599;51.564;6.990;2022-07-10T09:07:08;7.20;;;3.50;;
3175;SDS011;1599;51.564;6.990;2022-07-10T09:12:21;8.20;;;3.20;;
3175;SDS011;1599;51.564;6.990;2022-07-10T09:14:48;14.20;;;4.53;;
3175;SDS011;1599;51.564;6.990;2022-07-10T09:17:19;5.73;;;3.47;;
3175;SDS011;1599;51.564;6.990;2022-07-10T09:19:48;4.43;;;2.70;;
3175;SDS011;1599;51.564;6.990;2022-07-10T09:22:14;5.20;;;2.67;;
3175;SDS011;1599;51.564;6.990;2022-07-10T09:24:46;10.43;;;4.53;;
3175;SDS011;1599;51.564;6.990;2022-07-10T09:27:16;9.53;;;2.57;;
3175;SDS011;1599;51.564;6.990;2022-07-10T09:29:51;7.90;;;2.20;;
3175;SDS011;1599;51.564;6.990;2022-07-10T09:32:32;7.00;;;2.60;;
3175;SDS011;1599;51.564;6.990;2022-07-10T09:35:04;5.20;;;2.20;;
3175;SDS011;1599;51.564;6.990;2022-07-10T09:37:52;8.10;;;2.77;;
3175;SDS011;1599;51.564;6.990;2022-07-10T09:40:26;4.90;;;3.20;;
3175;SDS011;1599;51.564;6.990;2022-07-10T09:42:57;7.60;;;3.87;;
3175;SDS011;1599;51.564;6.990;2022-07-10T09:45:26;8.80;;;3.10;;
3175;SDS011;1599;51.564;6.990;2022-07-10T09:48:01;5.30;;;3.03;;
3175;SDS011;1599;51.564;6.990;2022-07-10T09:50:33;7.70;;;3.20;;
3175;SDS011;1599;51.564;6.990;2022-07-10T09:53:05;6.60;;;3.07;;
3175;SDS011;1599;51.564;6.990;2022-07-10T09:55:35;6.97;;;3.87;;
3175;SDS011;1599;51.564;6.990;2022-07-10T09:58:03;7.67;;;3.90;;
3175;SDS011;1599;51.564;6.990;2022-07-10T10:00:35;7.43;;;4.00;;
3175;SDS011;1599;51.564;6.990;2022-07-10T10:03:09;9.50;;;4.57;;
3175;SDS011;1599;51.564;6.990;2022-07-10T10:05:44;11.07;;;4.40;;
3175;SDS011;1599;51.564;6.990;2022-07-10T10:11:20;7.40;;;4.80;;
3175;SDS011;1599;51.564;6.990;2022-07-10T10:13:48;5.80;;;4.23;;
3175;SDS011;1599;51.564;6.990;2022-07-10T10:16:15;6.80;;;3.70;;
3175;SDS011;1599;51.564;6.990;2022-07-10T10:18:42;5.70;;;4.10;;
3175;SDS011;1599;51.564;6.990;2022-07-10T10:21:27;5.53;;;3.33;;
3175;SDS011;1599;51.564;6.990;2022-07-10T10:23:54;4.43;;;3.30;;
3175;SDS011;1599;51.564;6.990;2022-07-10T10:26:20;7.00;;;4.00;;
3175;SDS011;1599;51.564;6.990;2022-07-10T10:28:52;6.83;;;3.97;;
3175;SDS011;1599;51.564;6.990;2022-07-10T10:31:20;6.73;;;3.67;;
3175;SDS011;1599;51.564;6.990;2022-07-10T10:33:47;9.47;;;4.60;;
3175;SDS011;1599;51.564;6.990;2022-07-10T10:36:14;7.13;;;3.90;;
3175;SDS011;1599;51.564;6.990;2022-07-10T10:39:03;8.97;;;4.70;;
3175;SDS011;1599;51.564;6.990;2022-07-10T10:41:42;7.10;;;3.70;;
3175;SDS011;1599;51.564;6.990;2022-07-10T10:49:15;5.40;;;3.77;;
3175;SDS011;1599;51.564;6.990;2022-07-10T10:51:56;4.20;;;3.30;;
3175;SDS011;1599;51.564;6.990;2022-07-10T11:00:30;5.53;;;4.23;;
3175;SDS011;1599;51.564;6.990;2022-07-10T11:05:57;4.50;;;3.70;;
3175;SDS011;1599;51.564;6.990;2022-07-10T11:13:58;3.00;;;2.67;;
3175;SDS011;1599;51.564;6.990;2022-07-10T11:16:24;3.67;;;2.77;;
3175;SDS011;1599;51.564;6.990;2022-07-10T11:18:53;3.33;;;2.77;;
3175;SDS011;1599;51.564;6.990;2022-07-10T11:21:22;6.97;;;2.20;;
3175;SDS011;1599;51.564;6.990;2022-07-10T11:26:55;3.03;;;2.10;;
3175;SDS011;1599;51.564;6.990;2022-07-10T11:29:47;3.17;;;2.87;;
3175;SDS011;1599;51.564;6.990;2022-07-10T11:32:22;3.67;;;2.47;;
3175;SDS011;1599;51.564;6.990;2022-07-10T11:34:50;2.63;;;2.00;;
3175;SDS011;1599;51.564;6.990;2022-07-10T11:37:16;2.80;;;2.20;;
3175;SDS011;1599;51.564;6.990;2022-07-10T11:39:42;3.10;;;2.00;;
3175;SDS011;1599;51.564;6.990;2022-07-10T11:42:08;2.53;;;2.10;;
3175;SDS011;1599;51.564;6.990;2022-07-10T11:44:35;2.60;;;2.10;;
3175;SDS011;1599;51.564;6.990;2022-07-10T11:47:00;2.10;;;1.87;;
3175;SDS011;1599;51.564;6.990;2022-07-10T11:49:28;4.20;;;2.20;;
3175;SDS011;1599;51.564;6.990;2022-07-10T11:51:54;4.83;;;3.10;;
3175;SDS011;1599;51.564;6.990;2022-07-10T11:54:26;4.30;;;2.77;;
3175;SDS011;1599;51.564;6.990;2022-07-10T11:56:52;3.67;;;2.80;;
3175;SDS011;1599;51.564;6.990;2022-07-10T11:59:25;6.00;;;3.30;;
3175;SDS011;1599;51.564;6.990;2022-07-10T12:01:54;6.13;;;4.30;;
3175;SDS011;1599;51.564;6.990;2022-07-10T12:04:22;6.27;;;4.30;;
3175;SDS011;1599;51.564;6.990;2022-07-10T12:06:50;12.70;;;4.53;;
3175;SDS011;1599;51.564;6.990;2022-07-10T12:09:18;6.20;;;4.43;;
3175;SDS011;1599;51.564;6.990;2022-07-10T12:14:29;10.17;;;4.80;;
3175;SDS011;1599;51.564;6.990;2022-07-10T12:16:56;5.27;;;4.77;;
3175;SDS011;1599;51.564;6.990;2022-07-10T12:21:52;9.23;;;5.70;;
3175;SDS011;1599;51.564;6.990;2022-07-10T12:24:19;5.50;;;4.63;;
3175;SDS011;1599;51.564;6.990;2022-07-10T12:26:46;6.67;;;5.30;;
3175;SDS011;1599;51.564;6.990;2022-07-10T12:29:23;8.17;;;4.53;;
3175;SDS011;1599;51.564;6.990;2022-07-10T12:31:53;4.93;;;4.13;;
3175;SDS011;1599;51.564;6.990;2022-07-10T12:34:34;5.60;;;3.40;;
3175;SDS011;1599;51.564;6.990;2022-07-10T12:39:35;5.20;;;3.30;;
3175;SDS011;1599;51.564;6.990;2022-07-10T12:42:13;4.57;;;3.30;;
3175;SDS011;1599;51.564;6.990;2022-07-10T12:44:49;4.53;;;3.20;;
3175;SDS011;1599;51.564;6.990;2022-07-10T12:47:18;5.60;;;3.03;;
3175;SDS011;1599;51.564;6.990;2022-07-10T12:50:02;4.73;;;3.00;;
3175;SDS011;1599;51.564;6.990;2022-07-10T13:00:46;4.70;;;3.33;;
3175;SDS011;1599;51.564;6.990;2022-07-10T13:03:19;4.50;;;3.03;;
3175;SDS011;1599;51.564;6.990;2022-07-10T13:05:49;9.63;;;4.00;;
3175;SDS011;1599;51.564;6.990;2022-07-10T13:08:16;3.87;;;3.27;;
3175;SDS011;1599;51.564;6.990;2022-07-10T13:10:49;6.70;;;3.37;;
3175;SDS011;1599;51.564;6.990;2022-07-10T13:13:17;4.93;;;3.80;;
3175;SDS011;1599;51.564;6.990;2022-07-10T13:15:43;5.77;;;3.70;;
3175;SDS011;1599;51.564;6.990;2022-07-10T13:18:22;4.13;;;3.20;;
3175;SDS011;1599;51.564;6.990;2022-07-10T13:20:51;4.90;;;3.13;;
3175;SDS011;1599;51.564;6.990;2022-07-10T13:23:18;7.73;;;3.80;;
3175;SDS011;1599;51.564;6.990;2022-07-10T13:25:47;6.53;;;4.70;;
3175;SDS011;1599;51.564;6.990;2022-07-10T13:28:16;7.97;;;4.50;;
3175;SDS011;1599;51.564;6.990;2022-07-10T13:30:43;7.83;;;3.00;;
3175;SDS011;1599;51.564;6.990;2022-07-10T13:33:09;6.63;;;3.77;;
3175;SDS011;1599;51.564;6.990;2022-07-10T13:35:35;4.33;;;3.17;;
3175;SDS011;1599;51.564;6.990;2022-07-10T13:38:02;9.37;;;5.53;;
3175;SDS011;1599;51.564;6.990;2022-07-10T13:40:33;5.40;;;4.50;;
3175;SDS011;1599;51.564;6.990;2022-07-10T13:43:00;3.53;;;2.83;;
3175;SDS011;1599;51.564;6.990;2022-07-10T13:45:27;20.33;;;15.30;;
3175;SDS011;1599;51.564;6.990;2022-07-10T13:48:02;12.73;;;9.20;;
3175;SDS011;1599;51.564;6.990;2022-07-10T13:50:29;5.17;;;3.80;;
3175;SDS011;1599;51.564;6.990;2022-07-10T13:52:55;6.70;;;4.80;;
3175;SDS011;1599;51.564;6.990;2022-07-10T13:55:21;6.80;;;3.90;;
3175;SDS011;1599;51.564;6.990;2022-07-10T13:57:47;3.60;;;3.30;;
3175;SDS011;1599;51.564;6.990;2022-07-10T14:00:13;7.90;;;4.93;;
3175;SDS011;1599;51.564;6.990;2022-07-10T14:02:39;4.30;;;2.60;;
3175;SDS011;1599;51.564;6.990;2022-07-10T14:05:05;4.00;;;2.50;;
3175;SDS011;1599;51.564;6.990;2022-07-10T14:07:35;4.40;;;2.53;;
3175;SDS011;1599;51.564;6.990;2022-07-10T14:10:00;4.30;;;2.60;;
3175;SDS011;1599;51.564;6.990;2022-07-10T14:12:26;5.23;;;2.30;;
3175;SDS011;1599;51.564;6.990;2022-07-10T14:14:52;5.33;;;3.00;;
3175;SDS011;1599;51.564;6.990;2022-07-10T14:17:18;3.47;;;2.37;;
3175;SDS011;1599;51.564;6.990;2022-07-10T14:19:44;4.40;;;2.93;;
3175;SDS011;1599;51.564;6.990;2022-07-10T14:22:10;4.60;;;2.90;;
3175;SDS011;1599;51.564;6.990;2022-07-10T14:24:35;6.57;;;3.70;;
3175;SDS011;1599;51.564;6.990;2022-07-10T14:27:01;6.27;;;3.33;;
3175;SDS011;1599;51.564;6.990;2022-07-10T14:29:28;6.10;;;3.20;;
3175;SDS011;1599;51.564;6.990;2022-07-10T14:31:53;4.23;;;3.27;;
3175;SDS011;1599;51.564;6.990;2022-07-10T14:34:19;7.07;;;2.80;;
3175;SDS011;1599;51.564;6.990;2022-07-10T14:36:49;2.90;;;2.00;;
3175;SDS011;1599;51.564;6.990;2022-07-10T14:39:15;4.60;;;2.80;;
3175;SDS011;1599;51.564;6.990;2022-07-10T14:41:41;3.80;;;2.17;;
3175;SDS011;1599;51.564;6.990;2022-07-10T14:44:07;3.53;;;2.23;;
3175;SDS011;1599;51.564;6.990;2022-07-10T14:46:34;4.10;;;2.60;;
3175;SDS011;1599;51.564;6.990;2022-07-10T14:49:00;4.20;;;2.40;;
3175;SDS011;1599;51.564;6.990;2022-07-10T14:51:26;7.50;;;2.77;;
3175;SDS011;1599;51.564;6.990;2022-07-10T14:53:52;5.60;;;3.23;;
3175;SDS011;1599;51.564;6.990;2022-07-10T14:56:18;4.67;;;3.07;;
3175;SDS011;1599;51.564;6.990;2022-07-10T14:58:45;3.77;;;2.50;;
3175;SDS011;1599;51.564;6.990;2022-07-10T15:01:11;3.90;;;2.67;;
3175;SDS011;1599;51.564;6.990;2022-07-10T15:03:37;4.67;;;2.20;;
3175;SDS011;1599;51.564;6.990;2022-07-10T15:06:04;4.33;;;2.40;;
3175;SDS011;1599;51.564;6.990;2022-07-10T15:08:30;3.27;;;2.60;;
3175;SDS011;1599;51.564;6.990;2022-07-10T15:10:56;4.03;;;2.93;;
3175;SDS011;1599;51.564;6.990;2022-07-10T15:13:24;2.90;;;2.20;;
3175;SDS011;1599;51.564;6.990;2022-07-10T15:15:51;4.43;;;2.13;;
3175;SDS011;1599;51.564;6.990;2022-07-10T15:18:17;4.20;;;2.10;;
3175;SDS011;1599;51.564;6.990;2022-07-10T15:23:19;3.77;;;2.10;;
3175;SDS011;1599;51.564;6.990;2022-07-10T15:25:45;4.30;;;1.83;;
3175;SDS011;1599;51.564;6.990;2022-07-10T15:28:11;3.20;;;1.77;;
3175;SDS011;1599;51.564;6.990;2022-07-10T15:30:37;3.97;;;1.97;;
3175;SDS011;1599;51.564;6.990;2022-07-10T15:33:04;3.10;;;2.13;;
3175;SDS011;1599;51.564;6.990;2022-07-10T15:35:32;2.63;;;2.07;;
3175;SDS011;1599;51.564;6.990;2022-07-10T15:37:58;4.27;;;1.77;;
3175;SDS011;1599;51.564;6.990;2022-07-10T15:40:27;3.40;;;1.90;;
3175;SDS011;1599;51.564;6.990;2022-07-10T15:42:57;5.00;;;2.10;;
3175;SDS011;1599;51.564;6.990;2022-07-10T15:45:23;4.13;;;1.70;;
3175;SDS011;1599;51.564;6.990;2022-07-10T15:47:50;2.60;;;1.90;;
3175;SDS011;1599;51.564;6.990;2022-07-10T15:50:16;3.30;;;1.80;;
3175;SDS011;1599;51.564;6.990;2022-07-10T15:52:42;2.27;;;1.70;;
3175;SDS011;1599;51.564;6.990;2022-07-10T15:55:08;5.30;;;2.20;;
3175;SDS011;1599;51.564;6.990;2022-07-10T15:57:34;2.73;;;1.90;;
3175;SDS011;1599;51.564;6.990;2022-07-10T16:00:00;5.57;;;2.20;;
3175;SDS011;1599;51.564;6.990;2022-07-10T16:02:26;4.60;;;2.27;;
3175;SDS011;1599;51.564;6.990;2022-07-10T16:04:51;3.77;;;2.50;;